sensor_id;sensor_type;location;lat;lon;timestamp;temperature;humidity
5258;DHT22;2651;51.594;9.928;2022-10-16T00:00:28;16.20;99.90
5258;DHT22;2651;51.594;9.928;2022-10-16T00:01:30;16.20;99.90
5258;DHT22;2651;51.594;9.928;2022-10-16T00:02:32;16.30;99.90
5258;DHT22;2651;51.594;9.928;2022-10-16T00:03:34;16.30;99.90
5258;DHT22;2651;51.594;9.928;2022-10-16T00:04:36;16.30;99.90
5258;DHT22;2651;51.594;9.928;2022-10-16T00:05:42;16.30;99.90
5258;DHT22;2651;51.594;9.928;2022-10-16T00:06:44;16.30;99.90
5258;DHT22;2651;51.594;9.928;2022-10-16T00:07:46;16.20;99.90
5258;DHT22;2651;51.594;9.928;2022-10-16T00:08:48;16.20;99.90
5258;DHT22;2651;51.594;9.928;2022-10-16T00:09:50;16.20;99.90
5258;DHT22;2651;51.594;9.928;2022-10-16T00:10:52;16.30;99.90
5258;DHT22;2651;51.594;9.928;2022-10-16T00:11:53;16.30;99.90
5258;DHT22;2651;51.594;9.928;2022-10-16T00:13:00;16.30;99.90
5258;DHT22;2651;51.594;9.928;2022-10-16T00:14:05;16.30;99.90
5258;DHT22;2651;51.594;9.928;2022-10-16T00:15:07;16.30;99.90
5258;DHT22;2651;51.594;9.928;2022-10-16T00:16:10;16.30;99.90
5258;DHT22;2651;51.594;9.928;2022-10-16T00:17:12;16.30;99.90
5258;DHT22;2651;51.594;9.928;2022-10-16T00:18:13;16.30;99.90
5258;DHT22;2651;51.594;9.928;2022-10-16T00:19:15;16.30;99.90
5258;DHT22;2651;51.594;9.928;2022-10-16T00:20:17;16.30;99.90
5258;DHT22;2651;51.594;9.928;2022-10-16T00:21:21;16.30;99.90
5258;DHT22;2651;51.594;9.928;2022-10-16T00:22:23;16.40;99.90
5258;DHT22;2651;51.594;9.928;2022-10-16T00:23:25;16.30;99.90
5258;DHT22;2651;51.594;9.928;2022-10-16T00:24:28;16.40;99.90
5258;DHT22;2651;51.594;9.928;2022-10-16T00:25:29;16.40;99.90
5258;DHT22;2651;51.594;9.928;2022-10-16T00:26:34;16.30;99.90
5258;DHT22;2651;51.594;9.928;2022-10-16T00:27:36;16.30;99.90
5258;DHT22;2651;51.594;9.928;2022-10-16T00:28:38;16.30;99.90
5258;DHT22;2651;51.594;9.928;2022-10-16T00:29:40;16.30;99.90
5258;DHT22;2651;51.594;9.928;2022-10-16T00:30:42;16.30;99.90
5258;DHT22;2651;51.594;9.928;2022-10-16T00:31:43;16.30;99.90
5258;DHT22;2651;51.594;9.928;2022-10-16T00:32:45;16.30;99.90
5258;DHT22;2651;51.594;9.928;2022-10-16T00:33:47;16.40;99.90
5258;DHT22;2651;51.594;9.928;2022-10-16T00:34:49;16.40;99.90
5258;DHT22;2651;51.594;9.928;2022-10-16T00:35:50;16.40;99.90
5258;DHT22;2651;51.594;9.928;2022-10-16T00:36:52;16.40;99.90
5258;DHT22;2651;51.594;9.928;2022-10-16T00:37:54;16.40;99.90
5258;DHT22;2651;51.594;9.928;2022-10-16T00:38:56;16.40;99.90
5258;DHT22;2651;51.594;9.928;2022-10-16T00:40:01;16.40;99.90
5258;DHT22;2651;51.594;9.928;2022-10-16T00:41:04;16.40;99.90
5258;DHT22;2651;51.594;9.928;2022-10-16T00:42:06;16.40;99.90
5258;DHT22;2651;51.594;9.928;2022-10-16T00:43:35;16.40;99.90
5258;DHT22;2651;51.594;9.928;2022-10-16T00:44:49;16.40;99.90
5258;DHT22;2651;51.594;9.928;2022-10-16T00:45:52;16.40;99.90
5258;DHT22;2651;51.594;9.928;2022-10-16T00:46:54;16.40;99.90
5258;DHT22;2651;51.594;9.928;2022-10-16T00:47:56;16.40;99.90
5258;DHT22;2651;51.594;9.928;2022-10-16T00:49:16;16.40;99.90
5258;DHT22;2651;51.594;9.928;2022-10-16T00:50:24;16.40;99.90
5258;DHT22;2651;51.594;9.928;2022-10-16T00:51:39;16.30;99.90
5258;DHT22;2651;51.594;9.928;2022-10-16T00:52:46;16.30;99.90
5258;DHT22;2651;51.594;9.928;2022-10-16T00:53:49;16.30;99.90
5258;DHT22;2651;51.594;9.928;2022-10-16T00:54:52;16.30;99.90
5258;DHT22;2651;51.594;9.928;2022-10-16T00:55:54;16.30;99.90
5258;DHT22;2651;51.594;9.928;2022-10-16T00:56:59;16.30;99.90
5258;DHT22;2651;51.594;9.928;2022-10-16T00:58:01;16.30;99.90
5258;DHT22;2651;51.594;9.928;2022-10-16T00:59:14;16.40;99.90
5258;DHT22;2651;51.594;9.928;2022-10-16T01:00:20;16.30;99.90
5258;DHT22;2651;51.594;9.928;2022-10-16T01:01:22;16.30;99.90
5258;DHT22;2651;51.594;9.928;2022-10-16T01:02:24;16.40;99.90
5258;DHT22;2651;51.594;9.928;2022-10-16T01:03:29;16.40;99.90
5258;DHT22;2651;51.594;9.928;2022-10-16T01:04:38;16.40;99.90
5258;DHT22;2651;51.594;9.928;2022-10-16T01:05:48;16.40;99.90
5258;DHT22;2651;51.594;9.928;2022-10-16T01:10:23;16.30;99.90
5258;DHT22;2651;51.594;9.928;2022-10-16T01:13:01;16.20;99.90
5258;DHT22;2651;51.594;9.928;2022-10-16T01:14:14;16.30;99.90
5258;DHT22;2651;51.594;9.928;2022-10-16T01:15:32;16.30;99.90
5258;DHT22;2651;51.594;9.928;2022-10-16T01:16:44;16.30;99.90
5258;DHT22;2651;51.594;9.928;2022-10-16T01:21:31;16.30;99.90
5258;DHT22;2651;51.594;9.928;2022-10-16T01:22:56;16.30;99.90
5258;DHT22;2651;51.594;9.928;2022-10-16T01:24:06;16.20;99.90
5258;DHT22;2651;51.594;9.928;2022-10-16T01:25:15;16.20;99.90
5258;DHT22;2651;51.594;9.928;2022-10-16T01:27:30;16.10;99.90
5258;DHT22;2651;51.594;9.928;2022-10-16T01:28:48;16.10;99.90
5258;DHT22;2651;51.594;9.928;2022-10-16T01:31:06;16.20;99.90
5258;DHT22;2651;51.594;9.928;2022-10-16T01:32:36;16.20;99.90
5258;DHT22;2651;51.594;9.928;2022-10-16T01:33:42;16.20;99.90
5258;DHT22;2651;51.594;9.928;2022-10-16T01:34:52;16.20;99.90
5258;DHT22;2651;51.594;9.928;2022-10-16T01:36:00;16.20;99.90
5258;DHT22;2651;51.594;9.928;2022-10-16T01:37:15;16.10;99.90
5258;DHT22;2651;51.594;9.928;2022-10-16T01:38:29;16.10;99.90
5258;DHT22;2651;51.594;9.928;2022-10-16T01:39:35;16.10;99.90
5258;DHT22;2651;51.594;9.928;2022-10-16T01:40:39;16.10;99.90
5258;DHT22;2651;51.594;9.928;2022-10-16T01:41:49;16.10;99.90
5258;DHT22;2651;51.594;9.928;2022-10-16T01:42:58;16.20;99.90
5258;DHT22;2651;51.594;9.928;2022-10-16T01:44:04;16.20;99.90
5258;DHT22;2651;51.594;9.928;2022-10-16T01:45:07;16.20;99.90
5258;DHT22;2651;51.594;9.928;2022-10-16T01:46:13;16.20;99.90
5258;DHT22;2651;51.594;9.928;2022-10-16T01:47:15;16.20;99.90
5258;DHT22;2651;51.594;9.928;2022-10-16T01:48:19;16.20;99.90
5258;DHT22;2651;51.594;9.928;2022-10-16T01:49:24;16.20;99.90
5258;DHT22;2651;51.594;9.928;2022-10-16T01:50:27;16.20;99.90
5258;DHT22;2651;51.594;9.928;2022-10-16T01:51:30;16.20;99.90
5258;DHT22;2651;51.594;9.928;2022-10-16T01:52:35;16.30;99.90
5258;DHT22;2651;51.594;9.928;2022-10-16T01:53:39;16.30;99.90
5258;DHT22;2651;51.594;9.928;2022-10-16T01:54:44;16.30;99.90
5258;DHT22;2651;51.594;9.928;2022-10-16T01:55:48;16.20;99.90
5258;DHT22;2651;51.594;9.928;2022-10-16T01:56:51;16.20;99.90
5258;DHT22;2651;51.594;9.928;2022-10-16T01:57:53;16.20;99.90
5258;DHT22;2651;51.594;9.928;2022-10-16T01:59:01;16.10;99.90
5258;DHT22;2651;51.594;9.928;2022-10-16T02:00:10;16.10;99.90
5258;DHT22;2651;51.594;9.928;2022-10-16T02:01:13;16.10;99.90
5258;DHT22;2651;51.594;9.928;2022-10-16T02:02:22;16.20;99.90
5258;DHT22;2651;51.594;9.928;2022-10-16T02:03:27;16.20;99.90
5258;DHT22;2651;51.594;9.928;2022-10-16T02:04:36;16.20;99.90
5258;DHT22;2651;51.594;9.928;2022-10-16T02:05:53;16.20;99.90
5258;DHT22;2651;51.594;9.928;2022-10-16T02:06:55;16.20;99.90
5258;DHT22;2651;51.594;9.928;2022-10-16T02:07:57;16.10;99.90
5258;DHT22;2651;51.594;9.928;2022-10-16T02:09:03;16.20;99.90
5258;DHT22;2651;51.594;9.928;2022-10-16T02:10:05;16.20;99.90
5258;DHT22;2651;51.594;9.928;2022-10-16T02:11:07;16.10;99.90
5258;DHT22;2651;51.594;9.928;2022-10-16T02:12:19;16.10;99.90
5258;DHT22;2651;51.594;9.928;2022-10-16T02:14:46;16.10;99.90
5258;DHT22;2651;51.594;9.928;2022-10-16T02:15:48;16.00;99.90
5258;DHT22;2651;51.594;9.928;2022-10-16T02:16:50;16.00;99.90
5258;DHT22;2651;51.594;9.928;2022-10-16T02:17:52;16.00;99.90
5258;DHT22;2651;51.594;9.928;2022-10-16T02:18:53;16.00;99.90
5258;DHT22;2651;51.594;9.928;2022-10-16T02:19:56;16.00;99.90
5258;DHT22;2651;51.594;9.928;2022-10-16T02:21:05;15.90;99.90
5258;DHT22;2651;51.594;9.928;2022-10-16T02:22:11;16.00;99.90
5258;DHT22;2651;51.594;9.928;2022-10-16T02:23:29;16.00;99.90
5258;DHT22;2651;51.594;9.928;2022-10-16T02:24:51;16.00;99.90
5258;DHT22;2651;51.594;9.928;2022-10-16T02:25:54;16.00;99.90
5258;DHT22;2651;51.594;9.928;2022-10-16T02:27:05;16.00;99.90
5258;DHT22;2651;51.594;9.928;2022-10-16T02:28:17;16.00;99.90
5258;DHT22;2651;51.594;9.928;2022-10-16T02:29:24;16.00;99.90
5258;DHT22;2651;51.594;9.928;2022-10-16T02:30:34;16.00;99.90
5258;DHT22;2651;51.594;9.928;2022-10-16T02:31:41;16.00;99.90
5258;DHT22;2651;51.594;9.928;2022-10-16T02:32:46;16.00;99.90
5258;DHT22;2651;51.594;9.928;2022-10-16T02:33:50;16.00;99.90
5258;DHT22;2651;51.594;9.928;2022-10-16T02:34:54;16.00;99.90
5258;DHT22;2651;51.594;9.928;2022-10-16T02:35:57;15.90;99.90
5258;DHT22;2651;51.594;9.928;2022-10-16T02:37:01;15.90;99.90
5258;DHT22;2651;51.594;9.928;2022-10-16T02:38:04;15.90;99.90
5258;DHT22;2651;51.594;9.928;2022-10-16T02:39:08;15.90;99.90
5258;DHT22;2651;51.594;9.928;2022-10-16T02:40:10;15.90;99.90
5258;DHT22;2651;51.594;9.928;2022-10-16T02:41:12;15.90;99.90
5258;DHT22;2651;51.594;9.928;2022-10-16T02:42:17;15.90;99.90
5258;DHT22;2651;51.594;9.928;2022-10-16T02:43:19;15.90;99.90
5258;DHT22;2651;51.594;9.928;2022-10-16T02:44:21;15.90;99.90
5258;DHT22;2651;51.594;9.928;2022-10-16T02:45:23;15.80;99.90
5258;DHT22;2651;51.594;9.928;2022-10-16T02:46:24;15.80;99.90
5258;DHT22;2651;51.594;9.928;2022-10-16T02:47:26;15.80;99.90
5258;DHT22;2651;51.594;9.928;2022-10-16T02:48:28;15.80;99.90
5258;DHT22;2651;51.594;9.928;2022-10-16T02:49:29;15.80;99.90
5258;DHT22;2651;51.594;9.928;2022-10-16T02:50:31;15.80;99.90
5258;DHT22;2651;51.594;9.928;2022-10-16T02:51:32;15.80;99.90
5258;DHT22;2651;51.594;9.928;2022-10-16T02:52:34;15.80;99.90
5258;DHT22;2651;51.594;9.928;2022-10-16T02:53:36;15.80;99.90
5258;DHT22;2651;51.594;9.928;2022-10-16T02:54:37;15.80;99.90
5258;DHT22;2651;51.594;9.928;2022-10-16T02:55:39;15.80;99.90
5258;DHT22;2651;51.594;9.928;2022-10-16T02:56:41;15.80;99.90
5258;DHT22;2651;51.594;9.928;2022-10-16T02:57:43;15.80;99.90
5258;DHT22;2651;51.594;9.928;2022-10-16T02:58:44;15.80;99.90
5258;DHT22;2651;51.594;9.928;2022-10-16T02:59:46;15.80;99.90
5258;DHT22;2651;51.594;9.928;2022-10-16T03:00:48;15.80;99.90
5258;DHT22;2651;51.594;9.928;2022-10-16T03:01:49;15.80;99.90
5258;DHT22;2651;51.594;9.928;2022-10-16T03:02:51;15.80;99.90
5258;DHT22;2651;51.594;9.928;2022-10-16T03:03:53;15.90;99.90
5258;DHT22;2651;51.594;9.928;2022-10-16T03:04:55;15.80;99.90
5258;DHT22;2651;51.594;9.928;2022-10-16T03:05:57;15.90;99.90
5258;DHT22;2651;51.594;9.928;2022-10-16T03:06:59;15.80;99.90
5258;DHT22;2651;51.594;9.928;2022-10-16T03:08:01;15.90;99.90
5258;DHT22;2651;51.594;9.928;2022-10-16T03:09:03;15.90;99.90
5258;DHT22;2651;51.594;9.928;2022-10-16T03:10:05;15.90;99.90
5258;DHT22;2651;51.594;9.928;2022-10-16T03:11:07;15.90;99.90
5258;DHT22;2651;51.594;9.928;2022-10-16T03:12:09;15.80;99.90
5258;DHT22;2651;51.594;9.928;2022-10-16T03:13:10;15.80;99.90
5258;DHT22;2651;51.594;9.928;2022-10-16T03:14:12;15.80;99.90
5258;DHT22;2651;51.594;9.928;2022-10-16T03:15:14;15.80;99.90
5258;DHT22;2651;51.594;9.928;2022-10-16T03:16:16;15.80;99.90
5258;DHT22;2651;51.594;9.928;2022-10-16T03:17:18;15.80;99.90
5258;DHT22;2651;51.594;9.928;2022-10-16T03:18:19;15.80;99.90
5258;DHT22;2651;51.594;9.928;2022-10-16T03:19:22;15.80;99.90
5258;DHT22;2651;51.594;9.928;2022-10-16T03:20:24;15.80;99.90
5258;DHT22;2651;51.594;9.928;2022-10-16T03:21:25;15.90;99.90
5258;DHT22;2651;51.594;9.928;2022-10-16T03:22:27;15.90;99.90
5258;DHT22;2651;51.594;9.928;2022-10-16T03:23:29;15.90;99.90
5258;DHT22;2651;51.594;9.928;2022-10-16T03:24:31;15.90;99.90
5258;DHT22;2651;51.594;9.928;2022-10-16T03:25:33;15.90;99.90
5258;DHT22;2651;51.594;9.928;2022-10-16T03:26:35;16.00;99.90
5258;DHT22;2651;51.594;9.928;2022-10-16T03:27:36;16.00;99.90
5258;DHT22;2651;51.594;9.928;2022-10-16T03:28:38;16.00;99.90
5258;DHT22;2651;51.594;9.928;2022-10-16T03:29:40;16.00;99.90
5258;DHT22;2651;51.594;9.928;2022-10-16T03:30:43;16.00;99.90
5258;DHT22;2651;51.594;9.928;2022-10-16T03:31:45;16.00;99.90
5258;DHT22;2651;51.594;9.928;2022-10-16T03:32:46;16.00;99.90
5258;DHT22;2651;51.594;9.928;2022-10-16T03:33:48;16.00;99.90
5258;DHT22;2651;51.594;9.928;2022-10-16T03:34:50;16.00;99.90
5258;DHT22;2651;51.594;9.928;2022-10-16T03:35:53;16.00;99.90
5258;DHT22;2651;51.594;9.928;2022-10-16T03:36:55;16.00;99.90
5258;DHT22;2651;51.594;9.928;2022-10-16T03:37:56;15.90;99.90
5258;DHT22;2651;51.594;9.928;2022-10-16T03:38:58;15.90;99.90
5258;DHT22;2651;51.594;9.928;2022-10-16T03:40:00;15.90;99.90
5258;DHT22;2651;51.594;9.928;2022-10-16T03:41:02;15.80;99.90
5258;DHT22;2651;51.594;9.928;2022-10-16T03:42:04;15.80;99.90
5258;DHT22;2651;51.594;9.928;2022-10-16T03:43:06;15.80;99.90
5258;DHT22;2651;51.594;9.928;2022-10-16T03:44:08;15.80;99.90
5258;DHT22;2651;51.594;9.928;2022-10-16T03:45:10;15.80;99.90
5258;DHT22;2651;51.594;9.928;2022-10-16T03:46:12;15.90;99.90
5258;DHT22;2651;51.594;9.928;2022-10-16T03:47:14;15.80;99.90
5258;DHT22;2651;51.594;9.928;2022-10-16T03:48:15;15.80;99.90
5258;DHT22;2651;51.594;9.928;2022-10-16T03:49:17;15.80;99.90
5258;DHT22;2651;51.594;9.928;2022-10-16T03:50:19;15.80;99.90
5258;DHT22;2651;51.594;9.928;2022-10-16T03:51:20;15.80;99.90
5258;DHT22;2651;51.594;9.928;2022-10-16T03:52:22;15.80;99.90
5258;DHT22;2651;51.594;9.928;2022-10-16T03:53:24;15.80;99.90
5258;DHT22;2651;51.594;9.928;2022-10-16T03:54:25;15.80;99.90
5258;DHT22;2651;51.594;9.928;2022-10-16T03:55:27;15.80;99.90
5258;DHT22;2651;51.594;9.928;2022-10-16T03:56:29;15.80;99.90
5258;DHT22;2651;51.594;9.928;2022-10-16T03:57:30;15.80;99.90
5258;DHT22;2651;51.594;9.928;2022-10-16T03:58:32;15.80;99.90
5258;DHT22;2651;51.594;9.928;2022-10-16T03:59:34;15.80;99.90
5258;DHT22;2651;51.594;9.928;2022-10-16T04:00:35;15.80;99.90
5258;DHT22;2651;51.594;9.928;2022-10-16T04:01:37;15.80;99.90
5258;DHT22;2651;51.594;9.928;2022-10-16T04:02:39;15.80;99.90
5258;DHT22;2651;51.594;9.928;2022-10-16T04:03:41;15.70;99.90
5258;DHT22;2651;51.594;9.928;2022-10-16T04:04:42;15.70;99.90
5258;DHT22;2651;51.594;9.928;2022-10-16T04:05:44;15.70;99.90
5258;DHT22;2651;51.594;9.928;2022-10-16T04:06:46;15.70;99.90
5258;DHT22;2651;51.594;9.928;2022-10-16T04:07:47;15.70;99.90
5258;DHT22;2651;51.594;9.928;2022-10-16T04:08:49;15.70;99.90
5258;DHT22;2651;51.594;9.928;2022-10-16T04:09:51;15.60;99.90
5258;DHT22;2651;51.594;9.928;2022-10-16T04:10:53;15.60;99.90
5258;DHT22;2651;51.594;9.928;2022-10-16T04:11:55;15.60;99.90
5258;DHT22;2651;51.594;9.928;2022-10-16T04:12:56;15.60;99.90
5258;DHT22;2651;51.594;9.928;2022-10-16T04:13:58;15.50;99.90
5258;DHT22;2651;51.594;9.928;2022-10-16T04:15:00;15.50;99.90
5258;DHT22;2651;51.594;9.928;2022-10-16T04:16:02;15.40;99.90
5258;DHT22;2651;51.594;9.928;2022-10-16T04:17:03;15.50;99.90
5258;DHT22;2651;51.594;9.928;2022-10-16T04:18:05;15.50;99.90
5258;DHT22;2651;51.594;9.928;2022-10-16T04:19:07;15.50;99.90
5258;DHT22;2651;51.594;9.928;2022-10-16T04:20:09;15.50;99.90
5258;DHT22;2651;51.594;9.928;2022-10-16T04:21:10;15.40;99.90
5258;DHT22;2651;51.594;9.928;2022-10-16T04:22:12;15.40;99.90
5258;DHT22;2651;51.594;9.928;2022-10-16T04:23:14;15.40;99.90
5258;DHT22;2651;51.594;9.928;2022-10-16T04:24:15;15.40;99.90
5258;DHT22;2651;51.594;9.928;2022-10-16T04:25:17;15.40;99.90
5258;DHT22;2651;51.594;9.928;2022-10-16T04:26:19;15.30;99.90
5258;DHT22;2651;51.594;9.928;2022-10-16T04:27:20;15.40;99.90
5258;DHT22;2651;51.594;9.928;2022-10-16T04:28:22;15.40;99.90
5258;DHT22;2651;51.594;9.928;2022-10-16T04:29:24;15.40;99.90
5258;DHT22;2651;51.594;9.928;2022-10-16T04:30:26;15.30;99.90
5258;DHT22;2651;51.594;9.928;2022-10-16T04:31:27;15.40;99.90
5258;DHT22;2651;51.594;9.928;2022-10-16T04:32:29;15.40;99.90
5258;DHT22;2651;51.594;9.928;2022-10-16T04:33:30;15.40;99.90
5258;DHT22;2651;51.594;9.928;2022-10-16T04:34:32;15.40;99.90
5258;DHT22;2651;51.594;9.928;2022-10-16T04:35:34;15.40;99.90
5258;DHT22;2651;51.594;9.928;2022-10-16T04:36:35;15.40;99.90
5258;DHT22;2651;51.594;9.928;2022-10-16T04:37:37;15.40;99.90
5258;DHT22;2651;51.594;9.928;2022-10-16T04:38:39;15.40;99.90
5258;DHT22;2651;51.594;9.928;2022-10-16T04:39:41;15.40;99.90
5258;DHT22;2651;51.594;9.928;2022-10-16T04:40:42;15.40;99.90
5258;DHT22;2651;51.594;9.928;2022-10-16T04:41:44;15.40;99.90
5258;DHT22;2651;51.594;9.928;2022-10-16T04:42:46;15.40;99.90
5258;DHT22;2651;51.594;9.928;2022-10-16T04:43:48;15.40;99.90
5258;DHT22;2651;51.594;9.928;2022-10-16T04:44:49;15.40;99.90
5258;DHT22;2651;51.594;9.928;2022-10-16T04:45:51;15.40;99.90
5258;DHT22;2651;51.594;9.928;2022-10-16T04:46:53;15.40;99.90
5258;DHT22;2651;51.594;9.928;2022-10-16T04:47:58;15.40;99.90
5258;DHT22;2651;51.594;9.928;2022-10-16T04:49:00;15.40;99.90
5258;DHT22;2651;51.594;9.928;2022-10-16T04:50:02;15.40;99.90
5258;DHT22;2651;51.594;9.928;2022-10-16T04:51:04;15.40;99.90
5258;DHT22;2651;51.594;9.928;2022-10-16T04:52:06;15.40;99.90
5258;DHT22;2651;51.594;9.928;2022-10-16T04:53:07;15.40;99.90
5258;DHT22;2651;51.594;9.928;2022-10-16T04:54:10;15.30;99.90
5258;DHT22;2651;51.594;9.928;2022-10-16T04:55:11;15.30;99.90
5258;DHT22;2651;51.594;9.928;2022-10-16T04:56:13;15.30;99.90
5258;DHT22;2651;51.594;9.928;2022-10-16T04:57:17;15.30;99.90
5258;DHT22;2651;51.594;9.928;2022-10-16T04:58:18;15.30;99.90
5258;DHT22;2651;51.594;9.928;2022-10-16T04:59:20;15.30;99.90
5258;DHT22;2651;51.594;9.928;2022-10-16T05:00:22;15.30;99.90
5258;DHT22;2651;51.594;9.928;2022-10-16T05:01:24;15.40;99.90
5258;DHT22;2651;51.594;9.928;2022-10-16T05:02:25;15.40;99.90
5258;DHT22;2651;51.594;9.928;2022-10-16T05:03:27;15.40;99.90
5258;DHT22;2651;51.594;9.928;2022-10-16T05:04:29;15.40;99.90
5258;DHT22;2651;51.594;9.928;2022-10-16T05:05:30;15.40;99.90
5258;DHT22;2651;51.594;9.928;2022-10-16T05:06:32;15.40;99.90
5258;DHT22;2651;51.594;9.928;2022-10-16T05:07:34;15.40;99.90
5258;DHT22;2651;51.594;9.928;2022-10-16T05:08:35;15.40;99.90
5258;DHT22;2651;51.594;9.928;2022-10-16T05:09:37;15.40;99.90
5258;DHT22;2651;51.594;9.928;2022-10-16T05:10:40;15.40;99.90
5258;DHT22;2651;51.594;9.928;2022-10-16T05:11:42;15.40;99.90
5258;DHT22;2651;51.594;9.928;2022-10-16T05:12:43;15.40;99.90
5258;DHT22;2651;51.594;9.928;2022-10-16T05:13:45;15.40;99.90
5258;DHT22;2651;51.594;9.928;2022-10-16T05:14:47;15.40;99.90
5258;DHT22;2651;51.594;9.928;2022-10-16T05:15:49;15.40;99.90
5258;DHT22;2651;51.594;9.928;2022-10-16T05:16:50;15.30;99.90
5258;DHT22;2651;51.594;9.928;2022-10-16T05:17:53;15.30;99.90
5258;DHT22;2651;51.594;9.928;2022-10-16T05:18:55;15.30;99.90
5258;DHT22;2651;51.594;9.928;2022-10-16T05:20:17;15.30;99.90
5258;DHT22;2651;51.594;9.928;2022-10-16T05:21:19;15.20;99.90
5258;DHT22;2651;51.594;9.928;2022-10-16T05:22:21;15.20;99.90
5258;DHT22;2651;51.594;9.928;2022-10-16T05:23:23;15.30;99.90
5258;DHT22;2651;51.594;9.928;2022-10-16T05:24:25;15.30;99.90
5258;DHT22;2651;51.594;9.928;2022-10-16T05:25:26;15.30;99.90
5258;DHT22;2651;51.594;9.928;2022-10-16T05:26:28;15.30;99.90
5258;DHT22;2651;51.594;9.928;2022-10-16T05:27:30;15.40;99.90
5258;DHT22;2651;51.594;9.928;2022-10-16T05:28:31;15.40;99.90
5258;DHT22;2651;51.594;9.928;2022-10-16T05:29:33;15.40;99.90
5258;DHT22;2651;51.594;9.928;2022-10-16T05:30:37;15.30;99.90
5258;DHT22;2651;51.594;9.928;2022-10-16T05:31:38;15.30;99.90
5258;DHT22;2651;51.594;9.928;2022-10-16T05:32:40;15.30;99.90
5258;DHT22;2651;51.594;9.928;2022-10-16T05:33:42;15.30;99.90
5258;DHT22;2651;51.594;9.928;2022-10-16T05:34:45;15.40;99.90
5258;DHT22;2651;51.594;9.928;2022-10-16T05:35:47;15.40;99.90
5258;DHT22;2651;51.594;9.928;2022-10-16T05:36:48;15.40;99.90
5258;DHT22;2651;51.594;9.928;2022-10-16T05:37:52;15.40;99.90
5258;DHT22;2651;51.594;9.928;2022-10-16T05:38:54;15.40;99.90
5258;DHT22;2651;51.594;9.928;2022-10-16T05:39:56;15.30;99.90
5258;DHT22;2651;51.594;9.928;2022-10-16T05:40:57;15.30;99.90
5258;DHT22;2651;51.594;9.928;2022-10-16T05:41:59;15.30;99.90
5258;DHT22;2651;51.594;9.928;2022-10-16T05:43:01;15.30;99.90
5258;DHT22;2651;51.594;9.928;2022-10-16T05:44:06;15.30;99.90
5258;DHT22;2651;51.594;9.928;2022-10-16T05:45:10;15.30;99.90
5258;DHT22;2651;51.594;9.928;2022-10-16T05:46:11;15.30;99.90
5258;DHT22;2651;51.594;9.928;2022-10-16T05:47:13;15.20;99.90
5258;DHT22;2651;51.594;9.928;2022-10-16T05:48:15;15.20;99.90
5258;DHT22;2651;51.594;9.928;2022-10-16T05:49:17;15.20;99.90
5258;DHT22;2651;51.594;9.928;2022-10-16T05:50:18;15.20;99.90
5258;DHT22;2651;51.594;9.928;2022-10-16T05:51:20;15.20;99.90
5258;DHT22;2651;51.594;9.928;2022-10-16T05:52:22;15.20;99.90
5258;DHT22;2651;51.594;9.928;2022-10-16T05:53:23;15.20;99.90
5258;DHT22;2651;51.594;9.928;2022-10-16T05:54:26;15.10;99.90
5258;DHT22;2651;51.594;9.928;2022-10-16T05:55:28;15.20;99.90
5258;DHT22;2651;51.594;9.928;2022-10-16T05:56:30;15.20;99.90
5258;DHT22;2651;51.594;9.928;2022-10-16T05:57:31;15.10;99.90
5258;DHT22;2651;51.594;9.928;2022-10-16T05:58:35;15.20;99.90
5258;DHT22;2651;51.594;9.928;2022-10-16T05:59:37;15.20;99.90
5258;DHT22;2651;51.594;9.928;2022-10-16T06:00:39;15.20;99.90
5258;DHT22;2651;51.594;9.928;2022-10-16T06:01:40;15.20;99.90
5258;DHT22;2651;51.594;9.928;2022-10-16T06:02:42;15.20;99.90
5258;DHT22;2651;51.594;9.928;2022-10-16T06:03:44;15.10;99.90
5258;DHT22;2651;51.594;9.928;2022-10-16T06:04:46;15.20;99.90
5258;DHT22;2651;51.594;9.928;2022-10-16T06:05:47;15.20;99.90
5258;DHT22;2651;51.594;9.928;2022-10-16T06:06:49;15.20;99.90
5258;DHT22;2651;51.594;9.928;2022-10-16T06:07:51;15.20;99.90
5258;DHT22;2651;51.594;9.928;2022-10-16T06:08:54;15.20;99.90
5258;DHT22;2651;51.594;9.928;2022-10-16T06:09:55;15.20;99.90
5258;DHT22;2651;51.594;9.928;2022-10-16T06:11:02;15.20;99.90
5258;DHT22;2651;51.594;9.928;2022-10-16T06:12:04;15.20;99.90
5258;DHT22;2651;51.594;9.928;2022-10-16T06:13:06;15.20;99.90
5258;DHT22;2651;51.594;9.928;2022-10-16T06:14:08;15.20;99.90
5258;DHT22;2651;51.594;9.928;2022-10-16T06:15:10;15.20;99.90
5258;DHT22;2651;51.594;9.928;2022-10-16T06:16:12;15.20;99.90
5258;DHT22;2651;51.594;9.928;2022-10-16T06:17:14;15.20;99.90
5258;DHT22;2651;51.594;9.928;2022-10-16T06:18:16;15.10;99.90
5258;DHT22;2651;51.594;9.928;2022-10-16T06:19:18;15.20;99.90
5258;DHT22;2651;51.594;9.928;2022-10-16T06:20:20;15.20;99.90
5258;DHT22;2651;51.594;9.928;2022-10-16T06:21:23;15.20;99.90
5258;DHT22;2651;51.594;9.928;2022-10-16T06:22:27;15.20;99.90
5258;DHT22;2651;51.594;9.928;2022-10-16T06:23:29;15.30;99.90
5258;DHT22;2651;51.594;9.928;2022-10-16T06:24:31;15.30;99.90
5258;DHT22;2651;51.594;9.928;2022-10-16T06:25:32;15.30;99.90
5258;DHT22;2651;51.594;9.928;2022-10-16T06:26:34;15.30;99.90
5258;DHT22;2651;51.594;9.928;2022-10-16T06:27:36;15.30;99.90
5258;DHT22;2651;51.594;9.928;2022-10-16T06:28:38;15.30;99.90
5258;DHT22;2651;51.594;9.928;2022-10-16T06:29:39;15.40;99.90
5258;DHT22;2651;51.594;9.928;2022-10-16T06:30:42;15.40;99.90
5258;DHT22;2651;51.594;9.928;2022-10-16T06:31:45;15.40;99.90
5258;DHT22;2651;51.594;9.928;2022-10-16T06:32:46;15.30;99.90
5258;DHT22;2651;51.594;9.928;2022-10-16T06:33:51;15.30;99.90
5258;DHT22;2651;51.594;9.928;2022-10-16T06:34:53;15.30;99.90
5258;DHT22;2651;51.594;9.928;2022-10-16T06:36:04;15.40;99.90
5258;DHT22;2651;51.594;9.928;2022-10-16T06:37:06;15.40;99.90
5258;DHT22;2651;51.594;9.928;2022-10-16T06:38:07;15.40;99.90
5258;DHT22;2651;51.594;9.928;2022-10-16T06:39:09;15.40;99.90
5258;DHT22;2651;51.594;9.928;2022-10-16T06:40:11;15.50;99.90
5258;DHT22;2651;51.594;9.928;2022-10-16T06:41:15;15.50;99.90
5258;DHT22;2651;51.594;9.928;2022-10-16T06:42:17;15.60;99.90
5258;DHT22;2651;51.594;9.928;2022-10-16T06:43:18;15.60;99.90
5258;DHT22;2651;51.594;9.928;2022-10-16T06:44:20;15.60;99.90
5258;DHT22;2651;51.594;9.928;2022-10-16T06:45:21;15.60;99.90
5258;DHT22;2651;51.594;9.928;2022-10-16T06:46:24;15.60;99.90
5258;DHT22;2651;51.594;9.928;2022-10-16T06:48:30;15.60;99.90
5258;DHT22;2651;51.594;9.928;2022-10-16T06:49:32;15.60;99.90
5258;DHT22;2651;51.594;9.928;2022-10-16T06:50:33;15.60;99.90
5258;DHT22;2651;51.594;9.928;2022-10-16T06:51:35;15.60;99.90
5258;DHT22;2651;51.594;9.928;2022-10-16T06:52:44;15.60;99.90
5258;DHT22;2651;51.594;9.928;2022-10-16T06:53:48;15.60;99.90
5258;DHT22;2651;51.594;9.928;2022-10-16T06:55:08;15.60;99.90
5258;DHT22;2651;51.594;9.928;2022-10-16T06:56:12;15.70;99.90
5258;DHT22;2651;51.594;9.928;2022-10-16T06:57:14;15.70;99.90
5258;DHT22;2651;51.594;9.928;2022-10-16T06:58:15;15.70;99.90
5258;DHT22;2651;51.594;9.928;2022-10-16T06:59:17;15.70;99.90
5258;DHT22;2651;51.594;9.928;2022-10-16T07:00:18;15.70;99.90
5258;DHT22;2651;51.594;9.928;2022-10-16T07:01:22;15.70;99.90
5258;DHT22;2651;51.594;9.928;2022-10-16T07:02:24;15.70;99.90
5258;DHT22;2651;51.594;9.928;2022-10-16T07:03:26;15.70;99.90
5258;DHT22;2651;51.594;9.928;2022-10-16T07:04:28;15.70;99.90
5258;DHT22;2651;51.594;9.928;2022-10-16T07:05:29;15.70;99.90
5258;DHT22;2651;51.594;9.928;2022-10-16T07:06:33;15.70;99.90
5258;DHT22;2651;51.594;9.928;2022-10-16T07:07:34;15.70;99.90